Terminal Aerodrome Forecast
Issued by NWS Sioux Falls, SD

Home | Current Version | Previous Version | Graphics & Text | Print | Product List | Glossary Off
Versions: 1 2 3 4 5 6 7 8 9 10 11 12 13 14 15 16 17 18 19 20 21

357
FTUS43 KFSD 010532
TAFHON
TAF
KHON 010532Z 0106/0206 31012KT P6SM OVC020
     FM010900 31008KT P6SM OVC015
     FM020000 31004KT P6SM OVC015=

USA.gov is the U.S. government's official web portal to all federal, state and local government web resources and services.